Time;durP1;ratioP1;P1;durP2;ratioP2;P2;SDS_P1;SDS_P2;PMS_P1;PMS_P2;Temp;Humidity;BMP_temperature;BMP_pressure;BME280_temperature;BME280_humidity;BME280_pressure;Samples;Min_cycle;Max_cycle;Signal;HPM_P1;HPM_P2
2022/10/31 00:02:05;;;;;;;27.95;16.17;;;12.20;99.90;;;;;;5136370;27;20040;-82
2022/10/31 00:04:30;;;;;;;28.63;14.20;;;12.50;99.90;;;;;;5136193;27;20039;-82
2022/10/31 00:06:56;;;;;;;21.85;13.50;;;12.30;99.90;;;;;;5135839;27;20043;-82
2022/10/31 00:09:21;;;;;;;28.67;15.03;;;12.30;99.90;;;;;;5136151;27;20104;-82
2022/10/31 00:11:47;;;;;;;28.00;14.70;;;12.00;99.90;;;;;;5135830;27;20050;-82
2022/10/31 00:14:13;;;;;;;25.17;13.40;;;12.00;99.90;;;;;;5135397;27;20035;-82
2022/10/31 00:16:40;;;;;;;25.15;14.90;;;12.00;99.90;;;;;;5135709;27;20428;-82
2022/10/31 00:19:06;;;;;;;22.58;13.93;;;11.90;99.90;;;;;;5135672;27;20066;-82
2022/10/31 00:21:33;;;;;;;30.75;14.98;;;11.90;99.90;;;;;;5135569;27;20062;-82
2022/10/31 00:23:59;;;;;;;25.90;14.05;;;11.90;99.90;;;;;;5135366;27;20031;-82
2022/10/31 00:26:27;;;;;;;22.25;14.07;;;11.80;99.90;;;;;;5135477;27;20463;-82
2022/10/31 00:28:53;;;;;;;28.35;14.98;;;11.80;99.90;;;;;;5135525;27;20138;-82
2022/10/31 00:31:19;;;;;;;34.25;14.90;;;11.70;99.90;;;;;;5135840;27;20490;-82
2022/10/31 00:33:44;;;;;;;22.08;13.15;;;11.70;99.90;;;;;;5134317;27;20121;-82
2022/10/31 00:36:16;;;;;;;28.10;14.00;;;11.70;99.90;;;;;;5134422;27;20086;-82
2022/10/31 00:38:43;;;;;;;23.20;15.02;;;11.70;99.90;;;;;;5134621;27;20039;-82
2022/10/31 00:41:09;;;;;;;26.42;15.40;;;11.60;99.90;;;;;;5135273;27;20536;-82
2022/10/31 00:43:35;;;;;;;25.10;14.60;;;11.60;99.90;;;;;;5135792;27;20051;-82
2022/10/31 00:46:01;;;;;;;28.55;15.80;;;11.60;99.90;;;;;;5135365;27;20391;-82
2022/10/31 00:48:26;;;;;;;28.17;14.80;;;11.60;99.90;;;;;;5134922;27;20074;-82
2022/10/31 00:50:52;;;;;;;27.77;15.32;;;11.60;99.90;;;;;;5135174;27;20043;-82
2022/10/31 00:53:17;;;;;;;29.50;15.55;;;11.60;99.90;;;;;;5134860;27;20043;-82
2022/10/31 00:55:43;;;;;;;28.83;15.43;;;11.60;99.90;;;;;;5134982;27;20047;-82
2022/10/31 00:58:09;;;;;;;29.95;15.65;;;11.60;99.90;;;;;;5116426;27;20043;-82
2022/10/31 01:00:34;;;;;;;26.15;14.98;;;11.50;99.90;;;;;;5134867;27;20074;-82
2022/10/31 01:03:00;;;;;;;28.02;15.82;;;11.70;99.90;;;;;;5134927;27;20043;-83
2022/10/31 01:05:25;;;;;;;32.80;15.10;;;11.50;99.90;;;;;;5134556;27;20043;-82
2022/10/31 01:07:51;;;;;;;29.30;14.90;;;11.40;99.90;;;;;;5116718;27;20148;-82
2022/10/31 01:10:17;;;;;;;27.88;14.68;;;11.80;99.90;;;;;;5133670;27;20086;-83
2022/10/31 01:12:46;;;;;;;25.88;14.13;;;11.40;99.90;;;;;;5116739;28;20043;-82
2022/10/31 01:15:14;;;;;;;26.48;15.13;;;11.80;99.90;;;;;;5134525;27;20120;-82
2022/10/31 01:17:40;;;;;;;28.05;15.25;;;11.30;99.90;;;;;;5133767;28;20047;-82
2022/10/31 01:20:07;;;;;;;29.90;14.60;;;11.30;99.90;;;;;;5135084;28;20130;-82
2022/10/31 01:22:33;;;;;;;28.67;16.17;;;11.30;99.90;;;;;;5134683;27;20053;-83
2022/10/31 01:24:59;;;;;;;30.23;14.93;;;11.30;99.90;;;;;;5133769;28;20138;-82
2022/10/31 01:27:25;;;;;;;23.38;13.50;;;11.30;99.90;;;;;;5134595;27;20561;-82
2022/10/31 01:29:51;;;;;;;26.67;14.02;;;11.30;99.90;;;;;;5134855;28;20125;-82
2022/10/31 01:32:16;;;;;;;25.50;14.15;;;11.30;99.90;;;;;;5134624;28;20421;-82
2022/10/31 01:34:42;;;;;;;27.98;14.68;;;11.40;99.90;;;;;;5134660;28;20050;-82
2022/10/31 01:37:07;;;;;;;24.23;13.75;;;11.30;99.90;;;;;;5134562;28;20042;-82
2022/10/31 01:39:33;;;;;;;25.88;14.25;;;11.30;99.90;;;;;;5134486;28;20043;-82
2022/10/31 01:41:58;;;;;;;25.23;14.95;;;11.30;99.90;;;;;;5132990;28;20051;-82
2022/10/31 01:44:24;;;;;;;26.70;14.27;;;11.30;99.90;;;;;;5134498;28;20035;-82
2022/10/31 01:47:05;;;;;;;27.35;15.25;;;11.70;99.90;;;;;;5134558;27;20051;-82
2022/10/31 01:49:41;;;;;;;23.60;14.43;;;11.30;99.90;;;;;;5134624;27;20131;-82
2022/10/31 01:52:13;;;;;;;30.38;14.85;;;11.30;99.90;;;;;;5134328;27;20487;-82
2022/10/31 01:54:51;;;;;;;28.83;14.27;;;11.30;99.90;;;;;;5134370;27;20050;-82
2022/10/31 01:57:19;;;;;;;23.73;14.90;;;11.30;99.90;;;;;;5133257;28;20054;-82
2022/10/31 01:59:49;;;;;;;22.58;14.30;;;11.50;99.90;;;;;;5116291;28;20091;-82
2022/10/31 02:02:16;;;;;;;22.23;13.70;;;11.30;99.90;;;;;;5132992;28;20139;-82
2022/10/31 02:04:42;;;;;;;26.35;13.68;;;11.30;99.90;;;;;;5134082;27;20043;-82
2022/10/31 02:07:20;;;;;;;20.77;13.10;;;11.20;99.90;;;;;;5134329;27;20047;-82
2022/10/31 02:09:49;;;;;;;24.58;13.20;;;11.20;99.90;;;;;;5134478;27;20035;-82
2022/10/31 02:12:16;;;;;;;22.55;12.23;;;11.30;99.90;;;;;;5133286;28;20371;-82
2022/10/31 02:14:42;;;;;;;26.58;12.77;;;11.10;99.90;;;;;;5134286;27;20043;-82
2022/10/31 02:17:08;;;;;;;22.40;13.23;;;11.10;99.90;;;;;;5135650;27;20126;-82
2022/10/31 02:20:00;;;;;;;21.52;12.90;;;11.00;99.90;;;;;;5137945;27;20431;-82
2022/10/31 02:22:48;;;;;;;21.83;11.88;;;11.00;99.90;;;;;;5137260;27;20411;-82
2022/10/31 02:25:28;;;;;;;25.77;12.32;;;10.90;99.90;;;;;;5137951;27;20047;-82
2022/10/31 02:28:08;;;;;;;21.23;12.43;;;10.90;99.90;;;;;;5137783;27;20066;-82
2022/10/31 02:30:44;;;;;;;20.08;11.93;;;10.90;99.90;;;;;;5137713;27;20134;-82
2022/10/31 02:33:31;;;;;;;21.08;12.15;;;11.10;99.90;;;;;;5138020;27;20051;-82
2022/10/31 02:36:16;;;;;;;17.67;11.57;;;10.80;99.90;;;;;;5137873;27;20047;-82
2022/10/31 02:39:12;;;;;;;20.85;11.50;;;10.70;99.90;;;;;;5138257;27;20085;-82
2022/10/31 02:41:48;;;;;;;19.90;11.85;;;10.70;99.90;;;;;;5137668;27;20043;-82
2022/10/31 02:44:32;;;;;;;20.10;12.00;;;10.70;99.90;;;;;;5137684;27;20419;-82
2022/10/31 02:47:04;;;;;;;21.65;11.48;;;10.70;99.90;;;;;;5137928;27;20047;-82
2022/10/31 02:49:48;;;;;;;21.00;12.82;;;10.70;99.90;;;;;;5137450;27;20527;-82
2022/10/31 02:52:30;;;;;;;19.45;12.73;;;10.70;99.90;;;;;;5137694;27;20058;-82
2022/10/31 02:54:56;;;;;;;19.17;12.00;;;10.70;99.90;;;;;;5137424;27;20047;-82
2022/10/31 02:57:25;;;;;;;17.70;11.13;;;10.70;99.90;;;;;;5137306;27;20039;-81
2022/10/31 03:00:01;;;;;;;16.90;11.27;;;10.60;99.90;;;;;;5137251;27;20039;-82
2022/10/31 03:03:00;;;;;;;23.98;12.65;;;10.50;99.90;;;;;;5137473;27;20090;-82
2022/10/31 03:05:28;;;;;;;;;;;10.50;99.90;;;;;;5137735;27;20047;-82
2022/10/31 03:07:58;;;;;;;;;;;10.50;99.90;;;;;;5137861;27;20538;-82
2022/10/31 03:10:41;;;;;;;21.83;11.13;;;10.40;99.90;;;;;;5137110;27;19923;-82
2022/10/31 03:13:34;;;;;;;20.50;11.75;;;10.30;99.90;;;;;;5137070;27;20040;-82
2022/10/31 03:16:10;;;;;;;17.88;10.68;;;10.30;99.90;;;;;;5098089;27;20055;-82
2022/10/31 03:19:01;;;;;;;27.75;11.73;;;10.30;99.90;;;;;;5137192;27;20050;-82
2022/10/31 03:21:35;;;;;;;17.17;10.75;;;10.20;99.90;;;;;;5137402;27;20398;-82
2022/10/31 03:24:03;;;;;;;18.70;11.15;;;10.50;99.90;;;;;;5131618;27;20085;-82
2022/10/31 03:26:30;;;;;;;19.15;11.02;;;10.10;99.90;;;;;;5115758;28;20499;-82
2022/10/31 03:29:01;;;;;;;;;;;10.00;99.90;;;;;;5115887;28;20057;-82
2022/10/31 03:31:33;;;;;;;22.25;11.45;;;10.00;99.90;;;;;;5116049;28;20305;-82
2022/10/31 03:34:02;;;;;;;16.90;10.82;;;10.00;99.90;;;;;;5115944;28;20044;-82
2022/10/31 03:36:32;;;;;;;20.30;11.10;;;10.00;99.90;;;;;;5116011;28;20079;-81
2022/10/31 03:39:02;;;;;;;16.83;10.07;;;9.90;99.90;;;;;;5115631;28;20384;-81
2022/10/31 03:41:31;;;;;;;19.23;11.27;;;9.90;99.90;;;;;;5115705;28;20051;-82
2022/10/31 03:44:03;;;;;;;16.67;11.38;;;9.80;99.90;;;;;;5115786;28;20091;-82
2022/10/31 03:46:30;;;;;;;18.23;10.43;;;9.70;99.90;;;;;;5115764;28;20596;-82
2022/10/31 03:48:57;;;;;;;18.13;11.30;;;9.70;99.90;;;;;;5115753;28;20135;-82
2022/10/31 03:51:26;;;;;;;;;;;9.70;99.90;;;;;;5115915;28;20048;-82
2022/10/31 03:53:56;;;;;;;17.27;10.68;;;9.70;99.90;;;;;;5115528;28;19973;-82
2022/10/31 03:56:46;;;;;;;20.73;10.48;;;9.70;99.90;;;;;;5115944;28;20040;-82
2022/10/31 03:59:18;;;;;;;25.50;12.15;;;9.60;99.90;;;;;;5114584;28;20062;-82
2022/10/31 04:01:48;;;;;;;15.48;10.40;;;9.50;99.90;;;;;;5115257;28;20048;-83
2022/10/31 04:04:14;;;;;;;31.45;11.55;;;9.50;99.90;;;;;;5115469;28;20054;-82
2022/10/31 04:06:44;;;;;;;20.40;11.23;;;9.40;99.90;;;;;;5115583;28;20040;-82
2022/10/31 04:09:10;;;;;;;32.85;11.93;;;9.50;99.90;;;;;;5114989;28;20396;-82
2022/10/31 04:11:45;;;;;;;16.70;11.40;;;9.40;99.90;;;;;;5114866;28;20044;-82
2022/10/31 04:14:12;;;;;;;21.02;11.02;;;9.40;99.90;;;;;;5114010;28;20093;-82
2022/10/31 04:16:43;;;;;;;15.20;10.47;;;9.40;99.90;;;;;;5113903;28;20368;-82
2022/10/31 04:19:10;;;;;;;21.83;10.55;;;9.30;99.90;;;;;;5113891;28;20285;-82
2022/10/31 04:21:35;;;;;;;24.55;12.20;;;9.40;99.90;;;;;;5115092;28;20139;-82
2022/10/31 04:24:01;;;;;;;19.42;10.52;;;9.20;99.90;;;;;;5114135;28;20113;-82
2022/10/31 04:26:27;;;;;;;15.57;10.10;;;9.20;99.90;;;;;;5114774;28;20040;-82
2022/10/31 04:28:52;;;;;;;15.43;10.25;;;9.20;99.90;;;;;;5115323;28;20122;-82
2022/10/31 04:31:18;;;;;;;14.98;9.98;;;9.10;99.90;;;;;;5116254;28;20036;-81
2022/10/31 04:33:44;;;;;;;15.35;10.43;;;9.20;99.90;;;;;;5116074;28;20122;-83
2022/10/31 04:36:09;;;;;;;21.08;11.65;;;9.10;99.90;;;;;;5115990;28;20039;-82
2022/10/31 04:38:35;;;;;;;21.25;10.55;;;9.10;99.90;;;;;;5115979;28;20120;-81
2022/10/31 04:41:01;;;;;;;72.43;13.20;;;9.10;99.90;;;;;;5116284;28;20414;-82
2022/10/31 04:43:26;;;;;;;16.40;10.70;;;9.10;99.90;;;;;;5096488;28;20065;-82
2022/10/31 04:45:52;;;;;;;15.60;10.27;;;9.00;99.90;;;;;;5114550;28;20084;-82
2022/10/31 04:48:17;;;;;;;17.73;10.85;;;9.30;99.90;;;;;;5114339;28;20050;-82
2022/10/31 04:50:43;;;;;;;19.80;10.63;;;8.90;99.90;;;;;;5114557;28;20368;-82
2022/10/31 04:53:09;;;;;;;44.40;10.48;;;8.90;99.90;;;;;;5114507;28;20075;-82
2022/10/31 04:55:36;;;;;;;73.03;13.30;;;8.90;99.90;;;;;;5114469;28;20062;-82
2022/10/31 04:58:01;;;;;;;66.43;12.73;;;8.80;99.90;;;;;;5114442;28;20044;-82
2022/10/31 05:00:27;;;;;;;16.38;9.95;;;8.90;99.90;;;;;;5114466;28;20486;-82
2022/10/31 05:02:55;;;;;;;25.17;10.93;;;8.70;99.90;;;;;;5113177;28;20047;-82
2022/10/31 05:05:27;;;;;;;15.68;10.52;;;8.70;99.90;;;;;;5114326;28;20379;-82
2022/10/31 05:07:53;;;;;;;187.65;17.02;;;8.60;99.90;;;;;;5114429;28;20043;-82
2022/10/31 05:10:22;;;;;;;18.65;11.45;;;8.60;99.90;;;;;;5114526;28;20047;-82
2022/10/31 05:12:49;;;;;;;20.58;10.82;;;8.60;99.90;;;;;;5114142;28;20128;-82
2022/10/31 05:15:16;;;;;;;44.50;12.57;;;8.60;99.90;;;;;;5114163;28;20054;-82
2022/10/31 05:17:42;;;;;;;;;;;8.60;99.90;;;;;;5114684;28;20148;-81
2022/10/31 05:20:09;;;;;;;43.35;11.88;;;8.60;99.90;;;;;;5114138;28;19986;-82
2022/10/31 05:22:35;;;;;;;65.75;12.80;;;8.60;99.90;;;;;;5114182;28;20105;-82
2022/10/31 05:25:00;;;;;;;20.77;11.10;;;9.00;99.90;;;;;;5114110;28;20083;-82
2022/10/31 05:27:26;;;;;;;34.17;10.18;;;9.00;99.90;;;;;;5114168;28;20048;-82
2022/10/31 05:29:51;;;;;;;20.38;11.73;;;8.40;99.90;;;;;;5114109;28;20035;-82
2022/10/31 05:32:17;;;;;;;16.00;9.27;;;8.30;99.90;;;;;;5114566;28;20086;-82
2022/10/31 05:34:42;;;;;;;15.07;10.18;;;8.30;99.90;;;;;;5114080;28;20483;-82
2022/10/31 05:37:08;;;;;;;16.80;10.63;;;8.40;99.90;;;;;;5113786;28;20123;-82
2022/10/31 05:39:33;;;;;;;15.20;10.65;;;8.40;99.90;;;;;;5113061;28;20039;-82
2022/10/31 05:41:59;;;;;;;17.75;11.13;;;8.40;99.90;;;;;;5114046;28;20047;-82
2022/10/31 05:44:25;;;;;;;18.95;10.52;;;;;;;;;;5113956;28;20042;-82
2022/10/31 05:46:51;;;;;;;22.60;12.10;;;8.40;99.90;;;;;;5113874;28;20051;-82
2022/10/31 05:49:17;;;;;;;21.77;10.90;;;8.40;99.90;;;;;;5113905;28;20043;-81
2022/10/31 05:51:43;;;;;;;27.52;10.70;;;8.40;99.90;;;;;;5114609;28;20123;-82
2022/10/31 05:54:08;;;;;;;15.15;10.63;;;8.40;99.90;;;;;;5117883;28;20131;-81
2022/10/31 05:56:34;;;;;;;41.55;11.32;;;8.30;99.90;;;;;;5117768;28;20044;-83
2022/10/31 05:58:59;;;;;;;25.75;10.35;;;8.50;99.90;;;;;;5117971;28;20471;-80
2022/10/31 06:01:25;;;;;;;19.15;10.80;;;8.20;99.90;;;;;;5116976;28;20127;-83
2022/10/31 06:03:51;;;;;;;21.30;10.43;;;8.60;99.90;;;;;;5116664;28;20495;-84
2022/10/31 06:06:16;;;;;;;36.15;11.15;;;8.10;99.90;;;;;;5099728;28;20048;-82
2022/10/31 06:08:42;;;;;;;17.30;10.07;;;8.00;99.90;;;;;;5117543;28;20398;-81
2022/10/31 06:11:07;;;;;;;17.60;11.35;;;8.00;99.90;;;;;;5117542;28;20039;-81
2022/10/31 06:13:33;;;;;;;22.50;11.70;;;8.00;99.90;;;;;;5117561;28;20050;-80
2022/10/31 06:15:58;;;;;;;17.33;11.10;;;8.10;99.90;;;;;;5117348;28;20040;-81
2022/10/31 06:18:24;;;;;;;16.17;9.85;;;8.10;99.90;;;;;;5117894;28;20086;-80
2022/10/31 06:20:50;;;;;;;24.40;11.85;;;8.10;99.90;;;;;;5117421;28;20079;-82
2022/10/31 06:23:15;;;;;;;17.98;10.88;;;8.20;99.90;;;;;;5117681;28;20036;-81
2022/10/31 06:25:41;;;;;;;19.50;10.65;;;8.20;99.90;;;;;;5116121;28;20126;-81
2022/10/31 06:28:07;;;;;;;14.20;10.32;;;8.10;99.90;;;;;;5117267;28;20104;-80
2022/10/31 06:30:32;;;;;;;18.85;10.20;;;8.20;99.90;;;;;;5117266;28;20047;-80
2022/10/31 06:33:07;;;;;;;19.90;10.43;;;8.10;99.90;;;;;;5117078;28;20047;-81
2022/10/31 06:35:33;;;;;;;87.97;13.13;;;8.10;99.90;;;;;;5117109;28;20044;-80
2022/10/31 06:37:58;;;;;;;29.55;10.07;;;8.10;99.90;;;;;;5116188;28;20051;-80
2022/10/31 06:40:24;;;;;;;155.95;17.67;;;8.40;99.90;;;;;;5116225;28;20051;-81
2022/10/31 06:43:00;;;;;;;18.48;10.75;;;8.00;99.90;;;;;;5116800;28;20119;-80
2022/10/31 06:45:26;;;;;;;33.63;11.82;;;8.30;99.90;;;;;;5116934;28;20092;-82
2022/10/31 06:47:53;;;;;;;19.07;10.27;;;8.00;99.90;;;;;;5116880;28;20047;-81
2022/10/31 06:50:19;;;;;;;16.67;10.80;;;8.00;99.90;;;;;;5115522;28;20055;-85
2022/10/31 06:52:51;;;;;;;13.73;9.80;;;8.40;99.90;;;;;;5116583;27;20039;-84
2022/10/31 06:55:16;;;;;;;18.63;10.52;;;8.10;99.90;;;;;;5117077;28;20066;-83
2022/10/31 06:57:42;;;;;;;16.58;10.68;;;8.10;99.90;;;;;;5116577;28;20122;-80
2022/10/31 07:00:08;;;;;;;89.55;15.35;;;8.10;99.90;;;;;;5134898;27;20501;-82
2022/10/31 07:02:34;;;;;;;15.83;9.87;;;8.10;99.90;;;;;;5137276;27;20043;-81
2022/10/31 07:04:59;;;;;;;121.32;14.45;;;8.10;99.90;;;;;;5137492;27;20050;-80
2022/10/31 07:07:25;;;;;;;19.10;11.30;;;8.10;99.90;;;;;;5137066;27;20050;-76
2022/10/31 07:09:51;;;;;;;25.00;10.80;;;8.00;99.90;;;;;;5137063;27;20039;-76
2022/10/31 07:12:16;;;;;;;13.98;10.13;;;8.00;99.90;;;;;;5136919;27;20046;-75
2022/10/31 07:14:42;;;;;;;33.05;10.70;;;8.00;99.90;;;;;;5136786;27;20474;-73
2022/10/31 07:17:07;;;;;;;36.95;11.77;;;8.00;99.90;;;;;;5136942;27;20042;-76
2022/10/31 07:19:33;;;;;;;86.43;14.15;;;8.00;99.90;;;;;;5137151;27;20047;-78
2022/10/31 07:21:58;;;;;;;15.90;10.48;;;8.00;99.90;;;;;;5136839;27;20471;-78
2022/10/31 07:24:24;;;;;;;14.32;10.02;;;8.00;99.90;;;;;;5136954;27;20394;-81
2022/10/31 07:26:50;;;;;;;20.48;11.73;;;8.00;99.90;;;;;;5135724;27;20053;-81
2022/10/31 07:29:15;;;;;;;24.38;12.93;;;8.00;99.90;;;;;;5136664;27;20055;-74
2022/10/31 07:31:41;;;;;;;19.13;11.38;;;8.00;99.90;;;;;;5136616;27;20134;-80
2022/10/31 07:34:06;;;;;;;19.58;12.05;;;8.10;99.90;;;;;;5136513;27;20039;-80
2022/10/31 07:36:32;;;;;;;17.00;10.85;;;8.10;99.90;;;;;;5135413;27;20042;-81
2022/10/31 07:38:58;;;;;;;32.30;12.95;;;8.10;99.90;;;;;;5136651;27;20089;-80
2022/10/31 07:41:24;;;;;;;18.30;11.80;;;8.20;99.90;;;;;;5136233;27;20051;-79
2022/10/31 07:43:49;;;;;;;20.52;13.07;;;8.20;99.90;;;;;;5136470;27;20100;-80
2022/10/31 07:46:15;;;;;;;21.90;13.85;;;8.30;99.90;;;;;;5136412;27;20046;-81
2022/10/31 07:48:41;;;;;;;30.90;16.52;;;8.30;99.90;;;;;;5136217;27;20475;-80
2022/10/31 07:51:06;;;;;;;39.17;15.80;;;8.30;99.90;;;;;;5136268;27;20128;-80
2022/10/31 07:53:32;;;;;;;30.23;16.77;;;8.40;99.90;;;;;;5136068;27;20047;-81
2022/10/31 07:55:58;;;;;;;26.85;16.08;;;8.50;99.90;;;;;;5136153;27;20039;-80
2022/10/31 07:58:24;;;;;;;31.67;17.85;;;8.60;99.90;;;;;;5136017;27;20054;-80
2022/10/31 08:00:50;;;;;;;33.60;18.35;;;8.70;99.90;;;;;;5135683;27;20047;-81
2022/10/31 08:03:18;;;;;;;27.63;17.77;;;9.30;99.90;;;;;;5135157;27;20099;-80
2022/10/31 08:05:45;;;;;;;34.58;20.58;;;8.90;99.90;;;;;;5136157;27;20043;-80
2022/10/31 08:08:12;;;;;;;40.30;21.65;;;9.00;99.90;;;;;;5136057;27;20046;-80
2022/10/31 08:10:38;;;;;;;45.63;24.17;;;9.20;99.90;;;;;;5133478;27;20061;-81
2022/10/31 08:13:05;;;;;;;50.38;24.23;;;9.40;99.90;;;;;;5135022;27;20039;-81
2022/10/31 08:15:32;;;;;;;52.05;25.48;;;9.50;99.90;;;;;;5134263;27;20380;-81
2022/10/31 08:17:57;;;;;;;41.60;23.10;;;9.60;99.90;;;;;;5135410;27;20040;-81
2022/10/31 08:20:23;;;;;;;42.70;22.73;;;9.70;99.90;;;;;;5134182;27;20043;-82
2022/10/31 08:23:00;;;;;;;45.47;23.48;;;10.10;99.90;;;;;;5135483;27;20171;-73
2022/10/31 08:25:27;;;;;;;50.60;24.17;;;9.90;99.90;;;;;;5134982;27;20039;-78
2022/10/31 08:27:54;;;;;;;51.67;26.80;;;10.50;99.90;;;;;;5134983;27;20062;-74
2022/10/31 08:30:21;;;;;;;48.05;25.98;;;10.10;99.90;;;;;;5135305;27;20395;-81
2022/10/31 08:32:47;;;;;;;43.92;25.27;;;10.10;99.90;;;;;;5135252;27;20393;-78
2022/10/31 08:35:13;;;;;;;47.17;26.02;;;10.20;99.90;;;;;;5135046;27;20047;-78
2022/10/31 08:37:39;;;;;;;47.40;25.38;;;10.30;99.90;;;;;;5135245;27;20173;-79
2022/10/31 08:40:06;;;;;;;43.22;25.63;;;10.60;99.90;;;;;;5135161;27;20051;-78
2022/10/31 08:42:32;;;;;;;49.13;26.17;;;10.50;99.90;;;;;;5135104;27;20042;-78
2022/10/31 08:44:57;;;;;;;51.83;27.27;;;10.60;99.90;;;;;;5135131;27;20167;-78
2022/10/31 08:47:23;;;;;;;51.75;25.98;;;10.70;99.90;;;;;;5134800;27;20107;-80
2022/10/31 08:49:49;;;;;;;49.10;26.00;;;11.10;99.90;;;;;;5134758;27;20047;-78
2022/10/31 08:52:14;;;;;;;47.38;25.48;;;11.00;99.90;;;;;;5134947;27;20125;-80
2022/10/31 08:54:40;;;;;;;44.38;25.00;;;11.10;99.90;;;;;;5134707;27;20039;-79
2022/10/31 08:57:06;;;;;;;46.30;25.77;;;11.30;99.90;;;;;;5134895;27;20050;-81
2022/10/31 08:59:32;;;;;;;49.33;25.65;;;11.40;99.90;;;;;;5134814;27;20043;-81
2022/10/31 09:01:57;;;;;;;47.93;25.87;;;11.50;99.90;;;;;;5134684;27;20047;-77
2022/10/31 09:04:23;;;;;;;48.75;25.17;;;11.60;99.90;;;;;;5134564;27;20043;-79
2022/10/31 09:06:48;;;;;;;46.05;25.63;;;11.70;99.90;;;;;;5134616;27;20053;-80
2022/10/31 09:09:14;;;;;;;39.80;23.13;;;11.80;99.90;;;;;;5134798;27;20043;-80
2022/10/31 09:11:40;;;;;;;43.60;24.55;;;11.90;99.90;;;;;;5122473;27;20067;-79
2022/10/31 09:14:05;;;;;;;37.35;23.17;;;11.80;99.90;;;;;;5121890;27;20114;-77
2022/10/31 09:16:31;;;;;;;45.03;23.52;;;12.00;99.90;;;;;;5100958;28;20046;-78
2022/10/31 09:18:56;;;;;;;37.22;22.92;;;12.20;99.90;;;;;;5125408;27;20442;-83
2022/10/31 09:21:22;;;;;;;38.90;23.00;;;12.20;99.90;;;;;;5116442;28;20043;-80
2022/10/31 09:23:48;;;;;;;39.88;21.52;;;12.20;99.90;;;;;;5134570;28;20091;-80
2022/10/31 09:26:13;;;;;;;36.67;21.60;;;12.30;99.90;;;;;;5136273;27;20043;-77
2022/10/31 09:28:39;;;;;;;36.08;22.58;;;12.10;99.90;;;;;;5138441;27;20078;-76
2022/10/31 09:31:04;;;;;;;35.35;20.38;;;12.20;99.90;;;;;;5137481;27;20095;-79
2022/10/31 09:33:30;;;;;;;35.65;20.90;;;12.40;99.90;;;;;;5120623;27;20054;-78
2022/10/31 09:35:58;;;;;;;31.88;20.65;;;12.50;99.90;;;;;;5138676;27;20046;-82
2022/10/31 09:38:24;;;;;;;39.20;22.65;;;12.50;99.90;;;;;;5137604;27;20051;-80
2022/10/31 09:41:03;;;;;;;37.17;20.55;;;12.50;99.90;;;;;;5138593;27;20047;-80
2022/10/31 09:43:31;;;;;;;37.90;21.33;;;12.40;99.90;;;;;;5138914;27;20047;-81
2022/10/31 09:46:22;;;;;;;36.85;20.73;;;12.50;99.90;;;;;;5138333;27;20126;-82
2022/10/31 09:49:14;;;;;;;34.83;20.88;;;12.60;99.90;;;;;;5138248;27;20047;-82
2022/10/31 09:51:49;;;;;;;35.40;20.60;;;12.60;99.90;;;;;;5138596;27;20490;-81
2022/10/31 09:54:21;;;;;;;39.80;22.10;;;12.70;99.90;;;;;;5138460;27;20043;-82
2022/10/31 09:56:47;;;;;;;40.17;21.33;;;12.80;99.90;;;;;;5138496;27;20047;-80
2022/10/31 09:59:37;;;;;;;32.60;19.73;;;12.90;99.90;;;;;;5138015;27;20406;-80
2022/10/31 10:02:13;;;;;;;33.22;19.77;;;12.90;99.90;;;;;;5137467;27;20047;-80
2022/10/31 10:04:53;;;;;;;32.95;19.48;;;13.00;99.90;;;;;;5138351;27;20031;-82
2022/10/31 10:07:44;;;;;;;29.48;19.45;;;13.00;99.90;;;;;;5137993;27;20047;-80
2022/10/31 10:10:44;;;;;;;34.67;19.75;;;13.10;99.90;;;;;;5138208;27;20139;-82
2022/10/31 10:13:32;;;;;;;33.80;18.73;;;13.20;99.90;;;;;;5136568;27;20406;-81
2022/10/31 10:16:21;;;;;;;29.20;17.40;;;13.20;99.90;;;;;;5138341;27;20047;-81
2022/10/31 10:19:02;;;;;;;31.35;18.23;;;13.20;99.90;;;;;;5138546;27;20620;-81
2022/10/31 10:21:34;;;;;;;30.30;19.05;;;13.30;99.90;;;;;;5138042;27;20059;-81
2022/10/31 10:24:15;;;;;;;29.83;18.08;;;13.30;99.90;;;;;;5137922;27;20038;-81
2022/10/31 10:26:50;;;;;;;33.25;19.00;;;13.40;99.90;;;;;;5137919;27;20047;-81
2022/10/31 10:29:40;;;;;;;32.38;18.33;;;13.50;99.90;;;;;;5138677;27;20062;-81
2022/10/31 10:32:14;;;;;;;30.63;19.33;;;13.50;99.90;;;;;;5136819;27;20046;-81
2022/10/31 10:34:49;;;;;;;32.15;20.02;;;13.60;99.90;;;;;;5137918;27;20152;-81
2022/10/31 10:37:45;;;;;;;33.75;19.60;;;13.60;99.90;;;;;;5137075;27;20043;-81
2022/10/31 10:40:20;;;;;;;28.90;19.17;;;14.00;99.90;;;;;;5120315;27;20082;-82
2022/10/31 10:43:20;;;;;;;31.10;19.23;;;13.70;99.90;;;;;;5137708;27;20051;-83
2022/10/31 10:48:51;;;;;;;35.35;21.40;;;13.80;99.90;;;;;;5137573;27;20059;-82
2022/10/31 10:51:41;;;;;;;29.90;20.70;;;13.80;99.90;;;;;;5136386;27;20074;-82
2022/10/31 10:54:37;;;;;;;32.30;20.92;;;13.80;99.90;;;;;;5095220;27;20384;-80
2022/10/31 10:57:43;;;;;;;31.55;19.67;;;13.90;99.90;;;;;;5137576;27;20530;-80
2022/10/31 11:00:21;;;;;;;32.55;20.05;;;13.90;99.90;;;;;;5137646;27;20171;-82
2022/10/31 11:02:47;;;;;;;31.30;19.30;;;14.00;99.90;;;;;;5137351;27;20039;-82
2022/10/31 11:05:22;;;;;;;30.95;20.02;;;14.10;99.90;;;;;;5137195;27;20150;-82
2022/10/31 11:07:48;;;;;;;31.85;19.20;;;14.10;99.90;;;;;;5137451;27;20043;-81
2022/10/31 11:10:15;;;;;;;28.00;16.87;;;14.20;99.90;;;;;;5137116;27;20046;-81
2022/10/31 11:12:43;;;;;;;22.30;15.25;;;14.20;99.90;;;;;;5136999;27;20046;-82
2022/10/31 11:15:24;;;;;;;24.80;14.80;;;14.20;99.90;;;;;;5135752;27;20384;-81
2022/10/31 11:17:52;;;;;;;26.98;16.45;;;14.30;99.90;;;;;;5137540;27;20079;-80
2022/10/31 11:20:18;;;;;;;23.75;15.27;;;14.30;99.90;;;;;;5136945;27;20086;-82
2022/10/31 11:22:45;;;;;;;27.80;15.63;;;14.40;99.90;;;;;;5136021;27;20367;-82
2022/10/31 11:25:21;;;;;;;23.77;14.32;;;14.40;99.90;;;;;;5135606;27;20440;-81
2022/10/31 11:27:47;;;;;;;26.15;14.25;;;14.40;99.90;;;;;;5136587;27;20047;-82
2022/10/31 11:30:14;;;;;;;23.60;15.03;;;14.40;99.90;;;;;;5136686;27;20053;-83
2022/10/31 11:32:53;;;;;;;24.45;14.98;;;14.50;99.90;;;;;;5136458;27;20043;-82
2022/10/31 11:35:22;;;;;;;25.95;14.18;;;14.50;99.90;;;;;;5136663;27;20123;-81
2022/10/31 11:37:50;;;;;;;24.08;14.20;;;14.40;99.90;;;;;;5136603;27;20375;-81
2022/10/31 11:40:24;;;;;;;24.05;14.40;;;14.50;99.90;;;;;;5136414;27;20043;-83
2022/10/31 11:42:53;;;;;;;20.35;12.35;;;14.70;99.90;;;;;;5135451;27;20035;-80
2022/10/31 11:45:33;;;;;;;25.05;13.23;;;14.50;99.90;;;;;;5136394;27;20095;-81
2022/10/31 11:48:01;;;;;;;21.23;12.25;;;14.60;99.90;;;;;;5135339;27;20039;-81
2022/10/31 11:50:40;;;;;;;20.65;12.77;;;14.60;99.90;;;;;;5135269;27;20081;-81
2022/10/31 11:53:18;;;;;;;24.55;12.40;;;14.70;99.90;;;;;;5136201;27;20035;-80
2022/10/31 11:55:45;;;;;;;21.27;12.15;;;14.70;99.90;;;;;;5142602;27;20043;-85
2022/10/31 11:58:25;;;;;;;24.48;12.45;;;14.80;99.90;;;;;;5140330;27;20090;-78
2022/10/31 12:00:54;;;;;;;23.90;12.05;;;14.90;99.90;;;;;;5138348;27;20043;-79
2022/10/31 12:03:22;;;;;;;18.42;11.23;;;14.90;99.90;;;;;;5136207;27;20039;-81
2022/10/31 12:06:18;;;;;;;24.48;12.13;;;14.90;99.90;;;;;;5136221;27;20510;-81
2022/10/31 12:08:44;;;;;;;17.95;10.55;;;15.00;99.90;;;;;;5117929;27;20050;-82
2022/10/31 12:11:34;;;;;;;20.35;11.18;;;15.00;99.90;;;;;;5135817;27;20126;-83
2022/10/31 12:14:08;;;;;;;19.92;11.30;;;15.00;99.90;;;;;;5135779;27;20043;-80
2022/10/31 12:16:45;;;;;;;16.98;10.32;;;15.00;99.90;;;;;;5135816;27;20092;-81
2022/10/31 12:19:42;;;;;;;20.10;11.60;;;15.00;99.90;;;;;;5135452;27;20481;-81
2022/10/31 12:22:21;;;;;;;22.00;11.02;;;15.10;99.90;;;;;;5134979;27;20082;-79
2022/10/31 12:24:52;;;;;;;21.33;11.05;;;15.10;99.90;;;;;;5135635;27;20035;-81
2022/10/31 12:27:49;;;;;;;19.33;10.50;;;15.20;99.90;;;;;;5135193;27;20058;-79
2022/10/31 12:30:28;;;;;;;19.08;10.27;;;15.20;99.90;;;;;;5135270;27;20082;-81
2022/10/31 12:33:11;;;;;;;23.20;10.43;;;15.30;99.90;;;;;;5135406;27;20482;-73
2022/10/31 12:35:56;;;;;;;18.05;9.77;;;15.30;99.90;;;;;;5135647;27;20427;-82
2022/10/31 12:39:10;;;;;;;19.33;9.73;;;15.30;99.90;;;;;;5134143;27;20051;-81
2022/10/31 12:41:57;;;;;;;15.55;8.32;;;15.40;99.90;;;;;;5117373;27;20055;-81
2022/10/31 12:45:01;;;;;;;17.27;8.43;;;15.50;99.90;;;;;;5135218;27;20499;-83
2022/10/31 12:47:32;;;;;;;16.13;7.97;;;15.60;99.90;;;;;;5134631;27;20058;-82
2022/10/31 12:50:35;;;;;;;17.38;8.02;;;15.80;99.90;;;;;;5135282;27;20086;-80
2022/10/31 12:53:31;;;;;;;20.35;8.20;;;15.90;99.90;;;;;;5135107;27;20095;-80
2022/10/31 12:56:14;;;;;;;15.15;8.52;;;16.00;99.90;;;;;;5134021;27;20053;-82